Time;durP1;ratioP1;P1;durP2;ratioP2;P2;SDS_P1;SDS_P2;PMS_P1;PMS_P2;Temp;Humidity;BMP_temperature;BMP_pressure;BME280_temperature;BME280_humidity;BME280_pressure;Samples;Min_cycle;Max_cycle;Signal;HPM_P1;HPM_P2
2021/07/15 00:00:50;;;;;;;18.88;13.45;;;16.40;99.90;;;;;;5032214;28;20028;-75
2021/07/15 00:03:18;;;;;;;17.83;12.45;;;16.40;99.90;;;;;;5049629;28;21999;-75
2021/07/15 00:05:43;;;;;;;20.52;12.00;;;16.40;99.90;;;;;;5065271;28;20115;-75
2021/07/15 00:08:12;;;;;;;14.57;11.75;;;16.50;99.90;;;;;;5065004;28;20029;-74
2021/07/15 00:10:44;;;;;;;15.07;11.50;;;16.40;99.90;;;;;;5066406;28;20060;-74
2021/07/15 00:13:10;;;;;;;15.40;10.80;;;16.40;99.90;;;;;;5031184;28;20033;-74
2021/07/15 00:15:45;;;;;;;20.20;11.50;;;16.40;99.90;;;;;;5020828;28;20041;-75
2021/07/15 00:18:11;;;;;;;13.82;11.40;;;16.50;99.90;;;;;;5033151;28;20366;-74
2021/07/15 00:20:38;;;;;;;13.65;10.80;;;16.40;99.90;;;;;;5032325;28;20037;-74
2021/07/15 00:23:05;;;;;;;18.08;11.57;;;16.50;99.90;;;;;;5032351;28;20037;-74
2021/07/15 00:25:35;;;;;;;13.68;10.98;;;16.50;99.90;;;;;;5049605;28;20029;-74
2021/07/15 00:28:00;;;;;;;12.27;10.88;;;16.60;99.90;;;;;;5032841;28;20048;-74
2021/07/15 00:30:28;;;;;;;26.63;12.13;;;16.60;99.90;;;;;;5049274;28;20116;-74
2021/07/15 00:32:56;;;;;;;11.38;10.00;;;16.60;99.90;;;;;;5030646;28;20032;-74
2021/07/15 00:35:22;;;;;;;13.10;10.60;;;16.60;99.90;;;;;;5048956;28;20182;-74
2021/07/15 00:37:50;;;;;;;14.40;11.55;;;16.60;99.90;;;;;;5048673;28;20549;-74
2021/07/15 00:40:18;;;;;;;19.30;11.75;;;16.60;99.90;;;;;;5032082;28;20108;-76
2021/07/15 00:42:44;;;;;;;22.15;12.45;;;16.50;99.90;;;;;;5048609;28;20041;-74
2021/07/15 00:45:13;;;;;;;13.55;10.75;;;16.50;99.90;;;;;;5015454;28;20082;-74
2021/07/15 00:47:39;;;;;;;17.58;11.32;;;16.40;99.90;;;;;;5048688;28;20029;-74
2021/07/15 00:50:06;;;;;;;15.90;12.10;;;16.50;99.90;;;;;;4999593;28;20025;-75
2021/07/15 00:52:33;;;;;;;15.18;11.38;;;16.50;99.90;;;;;;5064555;28;20025;-75
2021/07/15 00:55:06;;;;;;;16.92;11.70;;;16.50;99.90;;;;;;5015119;28;20025;-75
2021/07/15 00:57:33;;;;;;;19.85;11.98;;;16.50;99.90;;;;;;5041823;28;20648;-75
2021/07/15 01:00:02;;;;;;;19.42;11.77;;;16.50;99.90;;;;;;5049985;28;20036;-74
2021/07/15 01:02:27;;;;;;;21.70;12.70;;;16.50;99.90;;;;;;5051322;28;20028;-74
2021/07/15 01:04:53;;;;;;;24.80;12.52;;;16.50;99.90;;;;;;5051032;28;20029;-75
2021/07/15 01:07:19;;;;;;;15.85;11.10;;;16.60;99.90;;;;;;5068242;28;20056;-75
2021/07/15 01:09:44;;;;;;;17.50;12.70;;;16.50;99.90;;;;;;5069676;28;20017;-75
2021/07/15 01:12:32;;;;;;;21.13;12.25;;;16.50;99.90;;;;;;5052241;28;20101;-75
2021/07/15 01:15:17;;;;;;;16.58;11.73;;;16.50;99.90;;;;;;5052839;28;20849;-75
2021/07/15 01:17:53;;;;;;;16.05;12.40;;;16.50;99.90;;;;;;5036801;28;20523;-74
2021/07/15 01:21:07;;;;;;;14.48;12.00;;;16.40;99.90;;;;;;5049845;28;20039;-75
2021/07/15 01:24:02;;;;;;;19.40;14.00;;;16.50;99.90;;;;;;4979084;28;20051;-75
2021/07/15 01:26:58;;;;;;;17.70;12.30;;;16.40;99.90;;;;;;5062892;28;20064;-75
2021/07/15 01:29:55;;;;;;;18.45;13.43;;;16.50;99.90;;;;;;5036377;28;20111;-75
2021/07/15 01:32:21;;;;;;;19.13;13.52;;;16.50;99.90;;;;;;5060087;28;20040;-75
2021/07/15 01:34:50;;;;;;;14.57;11.90;;;16.40;99.90;;;;;;5050250;28;20518;-75
2021/07/15 01:37:16;;;;;;;20.83;12.88;;;16.40;99.90;;;;;;5038306;28;21839;-69
2021/07/15 01:40:03;;;;;;;18.77;13.01;;;16.50;99.90;;;;;;5027318;28;10001202;-69
2021/07/15 01:42:29;;;;;;;16.00;12.48;;;16.40;99.90;;;;;;5045909;28;20289;-69
2021/07/15 01:44:55;;;;;;;14.25;12.10;;;16.50;99.90;;;;;;5048492;28;20036;-69
2021/07/15 01:47:23;;;;;;;14.73;10.75;;;16.50;99.90;;;;;;5049204;28;20020;-69
2021/07/15 01:49:49;;;;;;;13.93;10.98;;;16.50;99.90;;;;;;5048568;28;20025;-69
2021/07/15 01:52:15;;;;;;;20.77;11.40;;;16.60;99.90;;;;;;5049505;28;20042;-68
2021/07/15 01:54:46;;;;;;;19.80;12.98;;;16.60;99.90;;;;;;5031555;28;20485;-69
2021/07/15 01:57:11;;;;;;;14.95;12.15;;;16.60;99.90;;;;;;5037279;28;20059;-68
2021/07/15 01:59:37;;;;;;;15.48;12.20;;;16.60;99.90;;;;;;5024916;28;20486;-69
2021/07/15 02:02:03;;;;;;;16.58;9.30;;;16.60;99.90;;;;;;5008488;28;20037;-69
2021/07/15 02:04:30;;;;;;;14.05;9.57;;;16.60;99.90;;;;;;5040986;28;20037;-69
2021/07/15 02:06:55;;;;;;;15.45;10.27;;;16.50;99.90;;;;;;5026350;28;20566;-69
2021/07/15 02:09:21;;;;;;;24.73;10.68;;;16.60;99.90;;;;;;5006822;28;20091;-69
2021/07/15 02:11:48;;;;;;;13.93;9.85;;;16.60;99.90;;;;;;4992642;28;20033;-69
2021/07/15 02:14:14;;;;;;;12.13;8.90;;;16.60;99.90;;;;;;5025527;28;20041;-69
2021/07/15 02:16:41;;;;;;;14.48;9.48;;;16.50;99.90;;;;;;5007795;28;20025;-68
2021/07/15 02:19:07;;;;;;;11.25;8.35;;;16.60;99.90;;;;;;5024492;28;20145;-68
2021/07/15 02:21:33;;;;;;;15.00;7.97;;;16.60;99.90;;;;;;5042116;28;20176;-69
2021/07/15 02:23:59;;;;;;;12.60;8.45;;;16.60;99.90;;;;;;5040165;28;20041;-68
2021/07/15 02:26:26;;;;;;;16.17;8.10;;;16.60;99.90;;;;;;5023612;28;20044;-69
2021/07/15 02:28:51;;;;;;;11.25;8.00;;;16.50;99.90;;;;;;5008288;28;20710;-69
2021/07/15 02:31:18;;;;;;;11.60;8.18;;;16.50;99.90;;;;;;5007225;28;20045;-69
2021/07/15 02:33:49;;;;;;;13.10;7.70;;;16.50;99.90;;;;;;5007267;28;20026;-69
2021/07/15 02:36:14;;;;;;;12.68;7.85;;;16.60;99.90;;;;;;5007176;28;20033;-69
2021/07/15 02:38:42;;;;;;;11.40;7.65;;;16.60;99.90;;;;;;5007264;28;20037;-69
2021/07/15 02:41:08;;;;;;;14.23;7.40;;;16.60;99.90;;;;;;5022350;28;20478;-69
2021/07/15 02:43:33;;;;;;;15.50;7.65;;;16.60;99.90;;;;;;5008358;28;20060;-69
2021/07/15 02:45:59;;;;;;;11.23;6.53;;;16.60;99.90;;;;;;5007510;28;20132;-69
2021/07/15 02:48:24;;;;;;;14.15;6.57;;;16.50;99.90;;;;;;5027425;28;20029;-69
2021/07/15 02:50:50;;;;;;;10.95;6.65;;;16.50;99.90;;;;;;5025010;28;20651;-69
2021/07/15 02:53:18;;;;;;;15.05;6.32;;;16.50;99.90;;;;;;5041532;28;20394;-69
2021/07/15 02:55:48;;;;;;;8.60;6.07;;;16.60;99.90;;;;;;5008155;28;20159;-69
2021/07/15 02:58:25;;;;;;;9.20;5.68;;;16.60;99.90;;;;;;5007461;28;20520;-69
2021/07/15 03:00:55;;;;;;;9.30;6.50;;;16.50;99.90;;;;;;5060992;28;20710;-69
2021/07/15 03:03:29;;;;;;;10.18;6.63;;;16.60;99.90;;;;;;5043566;28;20122;-69
2021/07/15 03:06:07;;;;;;;11.02;6.75;;;16.50;99.90;;;;;;5025993;28;20029;-69
2021/07/15 03:08:36;;;;;;;11.38;5.90;;;16.60;99.90;;;;;;5042693;28;20033;-69
2021/07/15 03:11:06;;;;;;;15.15;7.55;;;16.60;99.90;;;;;;5038150;28;20032;-69
2021/07/15 03:13:32;;;;;;;13.23;8.48;;;16.60;99.90;;;;;;5045015;28;20560;-69
2021/07/15 03:15:57;;;;;;;13.65;8.40;;;16.60;99.90;;;;;;5060749;28;20446;-69
2021/07/15 03:18:24;;;;;;;14.05;9.55;;;16.60;99.90;;;;;;5061631;28;20411;-68
2021/07/15 03:20:52;;;;;;;20.60;9.82;;;16.60;99.90;;;;;;5028248;28;20037;-69
2021/07/15 03:23:21;;;;;;;17.50;11.07;;;16.60;99.90;;;;;;5044374;28;20187;-69
2021/07/15 03:25:51;;;;;;;12.85;9.93;;;16.70;99.90;;;;;;5028278;28;20548;-69
2021/07/15 03:28:21;;;;;;;24.08;11.77;;;16.60;99.90;;;;;;5026523;28;20040;-69
2021/07/15 03:30:47;;;;;;;17.38;11.32;;;16.70;99.90;;;;;;5011424;28;20082;-68
2021/07/15 03:33:14;;;;;;;45.03;13.77;;;16.60;99.90;;;;;;5026919;28;20040;-68
2021/07/15 03:35:42;;;;;;;26.50;12.18;;;16.60;99.90;;;;;;5026836;28;20029;-69
2021/07/15 03:38:08;;;;;;;24.60;12.43;;;16.60;99.90;;;;;;5045062;28;20542;-69
2021/07/15 03:40:34;;;;;;;17.88;11.50;;;16.60;99.90;;;;;;5010474;28;20119;-68
2021/07/15 03:43:02;;;;;;;15.70;10.73;;;16.60;99.90;;;;;;5026855;28;20037;-69
2021/07/15 03:45:28;;;;;;;20.30;10.18;;;16.60;99.90;;;;;;5031687;28;20036;-69
2021/07/15 03:47:54;;;;;;;12.07;9.75;;;16.60;99.90;;;;;;5027254;28;20033;-69
2021/07/15 03:50:22;;;;;;;40.63;11.50;;;16.70;99.90;;;;;;5044636;28;20028;-68
2021/07/15 03:52:49;;;;;;;25.10;11.15;;;16.70;99.90;;;;;;5027184;28;20198;-68
2021/07/15 03:55:15;;;;;;;17.02;11.10;;;16.70;99.90;;;;;;5012487;28;20033;-69
2021/07/15 03:57:41;;;;;;;24.15;10.77;;;16.70;99.90;;;;;;5010012;28;20040;-69
2021/07/15 04:00:07;;;;;;;10.57;7.50;;;16.60;99.90;;;;;;5044508;28;20489;-69
2021/07/15 04:02:33;;;;;;;15.43;7.50;;;16.60;99.90;;;;;;5043673;28;20477;-69
2021/07/15 04:05:03;;;;;;;10.88;6.63;;;16.60;99.90;;;;;;5011843;28;20029;-69
2021/07/15 04:07:31;;;;;;;10.50;7.57;;;16.60;99.90;;;;;;5048626;28;20056;-69
2021/07/15 04:10:04;;;;;;;8.50;6.32;;;16.60;99.90;;;;;;5043893;28;20682;-69
2021/07/15 04:12:29;;;;;;;10.48;7.75;;;16.60;99.90;;;;;;5028951;28;20033;-69
2021/07/15 04:15:10;;;;;;;11.27;7.97;;;16.60;99.90;;;;;;5046809;28;20036;-68
2021/07/15 04:17:45;;;;;;;9.82;7.43;;;16.70;99.90;;;;;;5048196;28;21742;-69
2021/07/15 04:20:11;;;;;;;18.05;8.45;;;16.70;99.90;;;;;;5043653;28;20047;-69
2021/07/15 04:22:40;;;;;;;11.35;8.65;;;16.70;99.90;;;;;;5063564;28;20070;-69
2021/07/15 04:25:09;;;;;;;13.98;9.25;;;16.70;99.90;;;;;;5051509;28;20041;-69
2021/07/15 04:27:37;;;;;;;15.82;9.57;;;16.70;99.90;;;;;;5013196;28;20086;-69
2021/07/15 04:30:14;;;;;;;15.27;10.30;;;16.70;99.90;;;;;;5047874;28;20119;-69
2021/07/15 04:32:59;;;;;;;11.73;9.88;;;16.70;99.90;;;;;;5046354;28;20033;-69
2021/07/15 04:35:26;;;;;;;15.77;10.45;;;16.60;99.90;;;;;;5047718;28;20028;-69
2021/07/15 04:37:56;;;;;;;21.48;10.52;;;16.60;99.90;;;;;;5001425;28;20111;-68
2021/07/15 04:40:25;;;;;;;20.98;11.88;;;16.70;99.90;;;;;;5046129;28;20028;-68
2021/07/15 04:42:59;;;;;;;14.45;11.13;;;16.70;99.90;;;;;;5046260;28;20111;-68
2021/07/15 04:45:26;;;;;;;16.67;11.45;;;16.70;99.90;;;;;;5031707;28;20222;-68
2021/07/15 04:47:53;;;;;;;20.77;12.05;;;16.70;99.90;;;;;;5029238;28;20609;-68
2021/07/15 04:50:21;;;;;;;13.27;11.38;;;16.70;99.90;;;;;;5045324;28;20100;-68
2021/07/15 04:52:52;;;;;;;18.20;12.35;;;16.70;99.90;;;;;;5027381;28;20065;-68
2021/07/15 04:55:20;;;;;;;19.45;13.38;;;16.70;99.90;;;;;;5029803;28;20079;-69
2021/07/15 04:57:46;;;;;;;18.45;11.90;;;16.70;99.90;;;;;;5030323;28;21945;-68
2021/07/15 05:00:12;;;;;;;15.20;12.10;;;16.70;99.90;;;;;;5045750;28;20029;-68
2021/07/15 05:02:40;;;;;;;17.92;12.77;;;16.70;99.90;;;;;;5047468;28;20032;-68
2021/07/15 05:05:07;;;;;;;21.10;12.80;;;16.70;99.90;;;;;;5013489;28;20029;-68
2021/07/15 05:07:34;;;;;;;17.25;13.00;;;16.70;99.90;;;;;;5029705;28;20558;-68
2021/07/15 05:10:00;;;;;;;21.35;12.77;;;16.70;99.90;;;;;;5030605;28;20078;-68
2021/07/15 05:12:26;;;;;;;20.83;13.07;;;16.80;99.90;;;;;;5029177;28;20064;-69
2021/07/15 05:14:52;;;;;;;20.35;13.57;;;16.80;99.90;;;;;;5034467;28;20141;-68
2021/07/15 05:17:18;;;;;;;14.80;13.07;;;16.80;99.90;;;;;;5012503;28;20029;-68
2021/07/15 05:19:47;;;;;;;15.88;12.60;;;16.80;99.90;;;;;;5029868;28;20052;-68
2021/07/15 05:22:17;;;;;;;15.73;12.93;;;16.90;99.90;;;;;;5047144;28;20028;-68
2021/07/15 05:24:43;;;;;;;18.02;13.93;;;16.90;99.90;;;;;;5047250;28;20036;-68
2021/07/15 05:27:08;;;;;;;15.77;13.90;;;16.90;99.90;;;;;;5030216;28;20077;-69
2021/07/15 05:29:34;;;;;;;20.63;13.63;;;16.90;99.90;;;;;;5063087;28;20031;-69
2021/07/15 05:32:02;;;;;;;16.52;13.20;;;17.00;99.90;;;;;;5027939;28;20032;-68
2021/07/15 05:34:30;;;;;;;15.57;12.75;;;17.00;99.90;;;;;;5045813;28;20068;-68
2021/07/15 05:37:00;;;;;;;18.50;13.63;;;17.00;99.90;;;;;;5046574;28;20041;-68
2021/07/15 05:39:28;;;;;;;17.60;14.15;;;17.00;99.90;;;;;;4998166;28;20040;-68
2021/07/15 05:41:54;;;;;;;19.15;13.85;;;17.00;99.90;;;;;;5029390;28;20044;-68
2021/07/15 05:44:19;;;;;;;20.90;13.45;;;17.00;99.90;;;;;;5029280;28;20033;-69
2021/07/15 05:46:47;;;;;;;16.92;13.32;;;17.10;99.90;;;;;;5027936;28;20036;-69
2021/07/15 05:49:17;;;;;;;14.15;12.23;;;17.10;99.90;;;;;;5029242;28;20108;-68
2021/07/15 05:51:46;;;;;;;17.60;13.45;;;17.10;99.90;;;;;;5011352;28;20035;-68
2021/07/15 05:54:16;;;;;;;24.23;13.57;;;17.10;99.90;;;;;;5029185;28;20147;-69
2021/07/15 05:56:42;;;;;;;18.98;13.75;;;17.10;99.90;;;;;;5046018;28;20718;-69
2021/07/15 05:59:09;;;;;;;16.77;12.00;;;17.10;99.90;;;;;;5013801;28;20098;-69
2021/07/15 06:01:37;;;;;;;18.38;14.48;;;17.10;99.90;;;;;;5028878;28;20044;-69
2021/07/15 06:04:03;;;;;;;19.08;14.10;;;17.10;99.90;;;;;;5046592;28;20106;-69
2021/07/15 06:06:29;;;;;;;16.83;13.60;;;17.10;99.90;;;;;;5028786;28;20634;-69
2021/07/15 06:08:54;;;;;;;21.42;13.02;;;17.10;99.90;;;;;;5045767;28;20458;-69
2021/07/15 06:11:20;;;;;;;20.50;12.98;;;17.20;99.90;;;;;;5045864;28;20024;-69
2021/07/15 06:13:46;;;;;;;22.38;12.27;;;17.30;99.90;;;;;;5046425;28;20032;-70
2021/07/15 06:16:14;;;;;;;12.20;9.80;;;17.40;99.90;;;;;;5026531;28;20166;-69
2021/07/15 06:18:40;;;;;;;13.02;11.02;;;17.30;99.90;;;;;;5046674;28;20391;-69
2021/07/15 06:21:05;;;;;;;16.02;9.57;;;17.40;99.90;;;;;;5045785;28;20566;-69
2021/07/15 06:23:34;;;;;;;10.48;9.02;;;17.40;99.90;;;;;;5046505;28;20088;-70
2021/07/15 06:26:00;;;;;;;14.60;10.30;;;17.50;99.90;;;;;;5061244;28;20107;-69
2021/07/15 06:28:26;;;;;;;17.88;10.63;;;17.50;99.90;;;;;;5045610;28;20083;-69
2021/07/15 06:30:54;;;;;;;8.40;7.38;;;17.50;99.90;;;;;;5045576;28;20044;-70
2021/07/15 06:33:20;;;;;;;22.30;7.32;;;17.50;99.90;;;;;;5045452;28;20036;-70
2021/07/15 06:35:50;;;;;;;8.32;6.88;;;17.50;99.90;;;;;;5058451;28;20119;-67
2021/07/15 06:38:16;;;;;;;9.75;8.57;;;17.60;99.90;;;;;;5027647;28;20037;-67
2021/07/15 06:40:46;;;;;;;8.40;7.50;;;17.60;99.90;;;;;;5042604;28;20029;-67
2021/07/15 06:43:11;;;;;;;8.50;7.55;;;17.60;99.90;;;;;;5043107;28;20029;-70
2021/07/15 06:45:39;;;;;;;9.70;8.00;;;17.70;99.90;;;;;;5010833;28;21943;-70
2021/07/15 06:48:07;;;;;;;9.93;8.65;;;17.70;99.90;;;;;;5046089;28;20043;-67
2021/07/15 06:50:33;;;;;;;10.15;8.52;;;17.70;99.90;;;;;;5042694;28;20021;-67
2021/07/15 06:53:00;;;;;;;9.05;7.63;;;17.80;99.90;;;;;;5044509;28;20106;-70
2021/07/15 06:55:28;;;;;;;10.20;7.90;;;17.80;99.90;;;;;;5060961;28;20083;-70
2021/07/15 06:57:54;;;;;;;10.77;7.90;;;17.80;99.90;;;;;;5025082;28;20052;-69
2021/07/15 07:00:22;;;;;;;9.13;7.72;;;18.00;99.90;;;;;;5044220;28;20048;-69
2021/07/15 07:02:50;;;;;;;7.38;6.68;;;18.10;99.90;;;;;;5045601;28;20055;-69
2021/07/15 07:05:15;;;;;;;8.13;6.28;;;18.00;99.90;;;;;;5046100;28;20128;-69
2021/07/15 07:07:44;;;;;;;7.45;6.75;;;18.00;99.90;;;;;;5029114;28;20541;-69
2021/07/15 07:10:10;;;;;;;7.10;5.70;;;18.00;99.90;;;;;;5060855;28;20025;-69
2021/07/15 07:12:36;;;;;;;9.80;5.90;;;18.10;99.90;;;;;;5045754;28;20029;-69
2021/07/15 07:15:06;;;;;;;10.95;7.03;;;18.10;99.90;;;;;;5045300;28;20039;-69
2021/07/15 07:17:34;;;;;;;9.18;6.68;;;18.20;99.90;;;;;;5061579;28;20043;-69
2021/07/15 07:20:00;;;;;;;8.07;5.78;;;18.30;99.90;;;;;;5044530;28;20036;-69
2021/07/15 07:22:30;;;;;;;6.68;5.40;;;18.30;99.90;;;;;;5025753;28;20729;-70
2021/07/15 07:24:58;;;;;;;9.45;5.40;;;18.30;99.90;;;;;;5027817;28;20095;-69
2021/07/15 07:27:24;;;;;;;6.78;5.88;;;18.40;99.90;;;;;;5032077;28;20035;-69
2021/07/15 07:29:56;;;;;;;6.18;5.57;;;18.40;99.90;;;;;;5026814;28;20354;-69
2021/07/15 07:32:24;;;;;;;6.55;5.70;;;18.50;99.90;;;;;;5025260;28;20773;-69
2021/07/15 07:34:50;;;;;;;7.13;5.68;;;18.50;99.90;;;;;;5026944;28;20029;-67
2021/07/15 07:37:17;;;;;;;7.28;5.90;;;18.50;99.90;;;;;;5044732;28;20067;-67
2021/07/15 07:39:44;;;;;;;7.07;5.55;;;18.50;99.90;;;;;;5045040;28;20032;-66
2021/07/15 07:42:12;;;;;;;8.38;6.68;;;18.50;99.90;;;;;;5044780;28;20037;-68
2021/07/15 07:44:38;;;;;;;8.63;5.88;;;18.60;99.90;;;;;;5027026;28;20069;-66
2021/07/15 07:47:03;;;;;;;9.38;6.47;;;18.60;99.90;;;;;;5029064;28;20138;-66
2021/07/15 07:49:29;;;;;;;8.95;6.65;;;18.70;99.90;;;;;;5031019;28;20020;-66
2021/07/15 07:51:55;;;;;;;9.00;6.25;;;18.70;99.90;;;;;;5031592;28;20089;-66
2021/07/15 07:54:21;;;;;;;9.75;5.55;;;18.70;99.90;;;;;;5031462;28;20462;-66
2021/07/15 07:56:46;;;;;;;8.52;6.22;;;18.70;99.90;;;;;;5031221;28;20120;-66
2021/07/15 07:59:14;;;;;;;9.50;6.47;;;18.70;99.90;;;;;;5048052;28;20591;-66
2021/07/15 08:01:42;;;;;;;13.30;7.80;;;18.80;99.90;;;;;;5030293;28;20043;-66
2021/07/15 08:04:08;;;;;;;8.18;7.35;;;18.80;99.90;;;;;;5031664;28;20522;-66
2021/07/15 08:06:37;;;;;;;9.38;6.97;;;18.90;99.90;;;;;;5064539;28;20033;-66
2021/07/15 08:09:07;;;;;;;8.30;6.32;;;18.90;99.90;;;;;;5028932;28;20028;-66
2021/07/15 08:11:35;;;;;;;8.80;5.93;;;19.00;99.90;;;;;;5012155;28;20037;-67
2021/07/15 08:14:01;;;;;;;10.40;6.57;;;19.10;99.90;;;;;;5048090;28;20033;-66
2021/07/15 08:16:26;;;;;;;8.00;6.82;;;19.10;99.90;;;;;;5049155;28;20028;-66
2021/07/15 08:18:55;;;;;;;7.15;5.60;;;19.30;99.90;;;;;;5014012;28;21627;-66
2021/07/15 08:21:24;;;;;;;8.45;6.00;;;19.30;99.90;;;;;;5047168;28;20024;-65
2021/07/15 08:23:50;;;;;;;11.00;6.95;;;19.30;99.90;;;;;;5046505;28;20347;-66
2021/07/15 08:26:18;;;;;;;5.72;4.53;;;19.30;99.90;;;;;;5021070;28;20090;-66
2021/07/15 08:28:45;;;;;;;5.78;4.88;;;19.30;99.90;;;;;;5028999;28;20036;-67
2021/07/15 08:31:13;;;;;;;5.53;4.32;;;19.30;99.90;;;;;;5048284;28;20462;-66
2021/07/15 08:33:41;;;;;;;5.15;4.07;;;19.40;99.90;;;;;;5015865;28;20037;-67
2021/07/15 08:36:07;;;;;;;7.50;5.22;;;19.40;99.90;;;;;;5064538;28;20304;-66
2021/07/15 08:38:33;;;;;;;5.32;4.10;;;19.50;99.90;;;;;;5047308;28;20037;-66
2021/07/15 08:40:58;;;;;;;9.13;3.55;;;19.50;99.90;;;;;;5046778;28;20033;-66
2021/07/15 08:43:26;;;;;;;5.38;3.28;;;19.50;99.90;;;;;;5028958;28;20151;-67
2021/07/15 08:45:52;;;;;;;5.05;3.17;;;19.50;99.90;;;;;;5029443;28;20021;-66
2021/07/15 08:48:25;;;;;;;4.72;3.00;;;19.50;99.90;;;;;;5029183;28;21152;-67
2021/07/15 08:50:53;;;;;;;5.30;4.10;;;19.50;99.90;;;;;;5028969;28;20061;-67
2021/07/15 08:53:20;;;;;;;5.88;3.60;;;19.50;99.90;;;;;;5046550;28;20064;-67
2021/07/15 08:58:21;;;;;;;4.20;3.10;;;19.50;99.90;;;;;;5046092;28;20053;-67
2021/07/15 09:00:47;;;;;;;6.25;3.00;;;19.60;99.90;;;;;;5061789;28;20052;-67
2021/07/15 09:03:13;;;;;;;5.05;2.60;;;19.60;99.90;;;;;;5062521;28;20054;-67
2021/07/15 09:05:43;;;;;;;5.97;2.60;;;19.70;99.90;;;;;;5046039;28;20441;-67
2021/07/15 09:08:14;;;;;;;6.75;3.30;;;19.70;99.90;;;;;;5046414;28;20024;-67
2021/07/15 09:10:40;;;;;;;5.60;3.00;;;19.80;99.90;;;;;;5029530;28;20139;-67
2021/07/15 09:13:07;;;;;;;5.25;3.40;;;19.90;99.90;;;;;;5046849;28;20036;-67
2021/07/15 09:15:33;;;;;;;4.38;2.92;;;20.00;99.90;;;;;;5044950;28;20645;-67
2021/07/15 09:17:59;;;;;;;7.88;2.80;;;20.00;99.90;;;;;;5045539;28;20040;-67
2021/07/15 09:20:26;;;;;;;5.20;2.80;;;20.10;99.90;;;;;;5044351;28;20353;-67
2021/07/15 09:23:03;;;;;;;4.45;2.50;;;20.10;99.90;;;;;;5046087;28;20032;-67
2021/07/15 09:25:49;;;;;;;4.30;2.13;;;20.10;99.90;;;;;;5045967;28;20048;-67
2021/07/15 09:28:23;;;;;;;5.20;2.40;;;20.20;99.90;;;;;;5034957;28;20037;-67
2021/07/15 09:30:53;;;;;;;4.57;2.30;;;20.20;99.90;;;;;;5028828;28;20033;-67
2021/07/15 09:33:19;;;;;;;3.70;2.05;;;20.30;99.90;;;;;;5061294;28;20037;-67
2021/07/15 09:35:48;;;;;;;4.20;2.00;;;20.30;99.90;;;;;;5047136;28;20033;-67
2021/07/15 09:38:19;;;;;;;3.22;2.47;;;20.30;99.90;;;;;;5028712;28;20111;-67
2021/07/15 09:40:44;;;;;;;6.75;2.70;;;20.30;99.90;;;;;;5045047;28;20110;-67
2021/07/15 09:43:17;;;;;;;5.15;2.90;;;20.40;99.90;;;;;;4695847;28;10000483;-67
2021/07/15 09:45:47;;;;;;;4.38;2.42;;;20.40;99.90;;;;;;5028288;28;20078;-67
2021/07/15 09:48:20;;;;;;;7.13;2.60;;;20.50;99.90;;;;;;5045487;28;20021;-67
2021/07/15 09:50:47;;;;;;;4.15;2.10;;;20.50;99.90;;;;;;5046113;28;20043;-68
2021/07/15 09:53:26;;;;;;;7.50;4.88;;;20.50;99.90;;;;;;5046176;28;20077;-65
2021/07/15 09:56:04;;;;;;;4.28;2.50;;;20.60;99.90;;;;;;5029051;28;20040;-65
2021/07/15 09:58:36;;;;;;;5.22;2.72;;;20.70;99.90;;;;;;5060861;28;20103;-66
2021/07/15 10:01:22;;;;;;;3.90;2.10;;;20.80;99.90;;;;;;5045603;28;20027;-66
2021/07/15 10:03:52;;;;;;;2.95;1.90;;;20.90;99.90;;;;;;5044600;28;20037;-66
2021/07/15 10:06:25;;;;;;;2.50;1.90;;;20.80;99.90;;;;;;5044070;28;20049;-65
2021/07/15 10:08:54;;;;;;;;;;;20.70;99.90;;;;;;5043462;28;20620;-65
2021/07/15 10:11:24;;;;;;;3.65;2.20;;;20.60;99.90;;;;;;5045691;28;20019;-66
2021/07/15 10:14:08;;;;;;;3.88;2.17;;;20.60;99.90;;;;;;5029756;28;20164;-65
2021/07/15 10:16:41;;;;;;;3.80;1.92;;;20.60;99.90;;;;;;5046093;28;20040;-65
2021/07/15 10:19:09;;;;;;;4.10;2.10;;;20.60;99.90;;;;;;5041942;28;20035;-65
2021/07/15 10:21:35;;;;;;;4.25;2.30;;;20.70;99.90;;;;;;5044690;28;20343;-65
2021/07/15 10:24:25;;;;;;;4.32;2.10;;;20.70;99.90;;;;;;5061205;28;20024;-66
2021/07/15 10:26:56;;;;;;;5.20;2.15;;;20.70;99.90;;;;;;5029006;28;20890;-66
2021/07/15 10:29:22;;;;;;;3.08;1.80;;;20.70;99.90;;;;;;5026199;28;20032;-71
2021/07/15 10:31:48;;;;;;;4.97;2.00;;;20.50;99.90;;;;;;5046296;28;20041;-68
2021/07/15 10:34:14;;;;;;;3.90;1.92;;;20.70;99.90;;;;;;5060821;28;20032;-68
2021/07/15 10:36:45;;;;;;;4.13;2.00;;;20.70;99.90;;;;;;5027249;28;20481;-68
2021/07/15 10:39:16;;;;;;;2.67;1.55;;;20.80;99.90;;;;;;5000287;28;20036;-67
2021/07/15 10:41:48;;;;;;;2.65;1.70;;;20.70;99.90;;;;;;5059380;28;20036;-67
2021/07/15 10:44:16;;;;;;;2.78;1.85;;;20.70;99.90;;;;;;5012073;28;20029;-68
2021/07/15 10:46:42;;;;;;;2.78;1.67;;;20.80;99.90;;;;;;5043395;28;20425;-65
2021/07/15 10:49:09;;;;;;;2.90;1.50;;;20.80;99.90;;;;;;5059757;28;20039;-65
2021/07/15 10:51:36;;;;;;;5.30;2.10;;;20.80;99.90;;;;;;5027622;28;20075;-70
2021/07/15 10:54:01;;;;;;;3.97;2.03;;;20.80;99.90;;;;;;5043430;28;20124;-68
2021/07/15 10:56:27;;;;;;;2.55;1.90;;;20.90;99.90;;;;;;5028490;28;20159;-67
2021/07/15 10:58:53;;;;;;;2.90;1.88;;;21.00;99.90;;;;;;5044107;28;20033;-68
2021/07/15 11:01:40;;;;;;;2.92;1.70;;;21.10;99.90;;;;;;5026260;28;20043;-68
2021/07/15 11:04:22;;;;;;;3.28;1.90;;;21.10;99.90;;;;;;5045344;28;20033;-68
2021/07/15 11:06:55;;;;;;;;;;;21.20;99.90;;;;;;5045338;28;20020;-68
2021/07/15 11:09:36;;;;;;;3.05;1.65;;;21.20;99.90;;;;;;5044752;28;20500;-68
2021/07/15 11:12:03;;;;;;;4.38;1.90;;;21.30;99.90;;;;;;4999251;28;20048;-68
2021/07/15 11:14:47;;;;;;;3.35;1.60;;;21.40;99.90;;;;;;5043769;28;20028;-69
2021/07/15 11:17:28;;;;;;;4.10;1.70;;;21.50;99.90;;;;;;5060752;28;20028;-69
2021/07/15 11:20:07;;;;;;;2.17;1.50;;;21.60;99.90;;;;;;5027198;28;20037;-68
2021/07/15 11:22:37;;;;;;;5.07;1.92;;;21.60;99.90;;;;;;5048604;28;20047;-69
2021/07/15 11:25:18;;;;;;;4.80;1.70;;;21.70;99.90;;;;;;5048886;28;20119;-68
2021/07/15 11:27:45;;;;;;;2.33;1.52;;;21.80;99.90;;;;;;5048861;28;20041;-68
2021/07/15 11:30:13;;;;;;;3.08;1.73;;;21.80;99.90;;;;;;5048428;28;21863;-68
2021/07/15 11:32:39;;;;;;;3.10;1.50;;;21.80;99.90;;;;;;5064436;28;20046;-68
2021/07/15 11:35:25;;;;;;;4.13;1.65;;;21.80;99.90;;;;;;5048789;28;20419;-68
2021/07/15 11:38:08;;;;;;;4.70;1.70;;;21.90;99.90;;;;;;5029398;28;20037;-68
2021/07/15 11:40:37;;;;;;;4.35;1.75;;;22.00;99.90;;;;;;5014687;28;20466;-68
2021/07/15 11:43:34;;;;;;;3.47;1.70;;;22.00;99.90;;;;;;5046309;28;21990;-68
2021/07/15 11:46:05;;;;;;;4.95;1.80;;;22.10;99.90;;;;;;5047348;28;20427;-68
2021/07/15 11:48:46;;;;;;;1.70;1.40;;;22.10;99.90;;;;;;5028841;28;20033;-65
2021/07/15 11:51:31;;;;;;;2.67;1.50;;;22.00;99.90;;;;;;5030235;28;20040;-65
2021/07/15 11:54:18;;;;;;;2.90;1.50;;;22.00;99.90;;;;;;5047562;28;21959;-68
2021/07/15 11:56:49;;;;;;;4.22;1.70;;;22.10;99.90;;;;;;5048566;28;20118;-68
2021/07/15 11:59:36;;;;;;;2.97;1.70;;;22.20;99.90;;;;;;5048419;28;20087;-68
2021/07/15 12:02:42;;;;;;;2.75;1.60;;;22.20;99.90;;;;;;5048156;28;20032;-68
2021/07/15 12:05:22;;;;;;;2.60;1.50;;;22.40;99.90;;;;;;5063409;28;20033;-69
2021/07/15 12:08:08;;;;;;;6.53;1.80;;;22.40;99.90;;;;;;5048934;28;20032;-70
2021/07/15 12:10:55;;;;;;;4.38;1.60;;;22.50;99.90;;;;;;5047026;28;20025;-69
2021/07/15 12:13:20;;;;;;;3.05;1.65;;;22.40;99.90;;;;;;5048106;28;20039;-69
2021/07/15 12:15:52;;;;;;;3.67;1.50;;;22.20;99.90;;;;;;5047966;28;20068;-68
2021/07/15 12:18:21;;;;;;;3.17;1.33;;;22.30;99.90;;;;;;5016093;28;20074;-69
2021/07/15 12:20:55;;;;;;;3.17;1.58;;;22.30;99.90;;;;;;5061427;28;20098;-68
2021/07/15 12:23:25;;;;;;;3.35;1.20;;;22.40;99.90;;;;;;5027638;28;20028;-69
2021/07/15 12:25:53;;;;;;;2.40;1.20;;;22.40;99.90;;;;;;5031018;28;20021;-69
2021/07/15 12:28:24;;;;;;;3.47;1.42;;;22.40;99.90;;;;;;5031192;28;20032;-68
2021/07/15 12:31:06;;;;;;;4.72;1.75;;;22.40;99.90;;;;;;5029150;28;20036;-69
2021/07/15 12:33:37;;;;;;;3.00;1.55;;;22.40;99.90;;;;;;5046763;28;21673;-69
2021/07/15 12:36:13;;;;;;;3.07;1.27;;;22.40;99.90;;;;;;5064632;28;20428;-68
2021/07/15 12:38:39;;;;;;;3.17;1.10;;;22.40;99.90;;;;;;5049465;28;20868;-65
2021/07/15 12:41:09;;;;;;;1.38;1.20;;;22.40;99.90;;;;;;5028827;28;20059;-65
2021/07/15 12:43:54;;;;;;;2.83;1.38;;;22.40;99.90;;;;;;5048401;28;20121;-67
2021/07/15 12:46:26;;;;;;;2.15;1.20;;;22.40;99.90;;;;;;5047583;28;20083;-68
2021/07/15 12:48:57;;;;;;;4.32;1.40;;;22.40;99.90;;;;;;5028371;28;20111;-68
2021/07/15 12:51:24;;;;;;;8.38;1.33;;;22.50;99.90;;;;;;5046039;28;20437;-68
2021/07/15 12:53:51;;;;;;;3.72;1.52;;;22.70;99.90;;;;;;5064445;28;20037;-68